createdAt,value
2022-12-19T00:00:00.271Z,43.25
2022-12-19T00:02:33.805Z,45.65
2022-12-19T00:05:08.047Z,46.00
2022-12-19T00:07:42.287Z,48.10
2022-12-19T00:10:15.338Z,47.63
2022-12-19T00:12:48.163Z,46.35
2022-12-19T00:15:20.956Z,41.85
2022-12-19T00:17:53.739Z,47.53
2022-12-19T00:20:26.826Z,41.55
2022-12-19T00:23:00.964Z,42.92
2022-12-19T00:25:33.830Z,43.17
2022-12-19T00:28:08.197Z,48.47
2022-12-19T00:30:41.014Z,45.92
2022-12-19T00:33:14.134Z,45.45
2022-12-19T00:35:46.987Z,43.15
2022-12-19T00:38:21.208Z,41.10
2022-12-19T00:40:54.096Z,43.30
2022-12-19T00:43:26.904Z,38.60
2022-12-19T00:46:00.031Z,42.28
2022-12-19T00:48:33.050Z,48.17
2022-12-19T00:51:08.766Z,45.63
2022-12-19T00:53:44.620Z,47.15
2022-12-19T00:56:19.368Z,46.45
2022-12-19T00:58:53.917Z,43.25
2022-12-19T01:01:28.754Z,43.30
2022-12-19T01:06:59.775Z,45.22
2022-12-19T01:09:38.132Z,43.60
2022-12-19T01:12:29.488Z,43.05
2022-12-19T01:15:04.207Z,43.67
2022-12-19T01:17:43.980Z,41.72
2022-12-19T01:20:29.183Z,50.83
2022-12-19T01:23:02.955Z,40.85
2022-12-19T01:25:39.116Z,44.63
2022-12-19T01:28:16.717Z,42.35
2022-12-19T01:30:51.503Z,43.88
2022-12-19T01:33:25.099Z,42.53
2022-12-19T01:35:57.972Z,43.33
2022-12-19T01:38:31.186Z,43.80
2022-12-19T01:41:06.024Z,42.63
2022-12-19T01:43:58.424Z,43.90
2022-12-19T01:46:36.394Z,40.58
2022-12-19T01:49:15.706Z,45.30
2022-12-19T01:51:53.168Z,48.00
2022-12-19T01:54:30.813Z,45.85
2022-12-19T01:57:09.248Z,41.78
2022-12-19T01:59:45.245Z,42.90
2022-12-19T02:02:23.905Z,47.50
2022-12-19T02:04:57.154Z,44.03
2022-12-19T02:07:30.806Z,43.05
2022-12-19T02:10:04.048Z,46.78
2022-12-19T02:12:42.381Z,41.10
2022-12-19T02:15:18.299Z,43.17
2022-12-19T02:18:08.719Z,43.65
2022-12-19T02:21:24.034Z,39.08
2022-12-19T02:24:22.287Z,42.83
2022-12-19T02:27:04.148Z,39.00
2022-12-19T02:32:36.132Z,35.15
2022-12-19T02:35:15.876Z,39.25
2022-12-19T02:37:53.988Z,43.42
2022-12-19T02:40:31.123Z,39.20
2022-12-19T02:43:06.020Z,40.35
2022-12-19T02:45:41.046Z,37.33
2022-12-19T02:48:19.330Z,39.30
2022-12-19T02:50:52.508Z,45.00
2022-12-19T02:53:25.345Z,43.47
2022-12-19T02:56:12.437Z,41.95
2022-12-19T02:59:02.134Z,44.35
2022-12-19T03:01:45.433Z,41.15
2022-12-19T03:04:33.382Z,40.97
2022-12-19T03:07:19.431Z,38.20
2022-12-19T03:09:58.427Z,40.95
2022-12-19T03:12:37.127Z,41.58
2022-12-19T03:15:10.557Z,41.88
2022-12-19T03:17:43.850Z,40.17
2022-12-19T03:20:25.431Z,40.55
2022-12-19T03:22:58.280Z,42.33
2022-12-19T03:25:32.083Z,41.25
2022-12-19T03:28:12.010Z,42.13
2022-12-19T03:30:47.629Z,42.03
2022-12-19T03:33:23.453Z,41.28
2022-12-19T03:36:00.547Z,44.50
2022-12-19T03:38:35.439Z,39.15
2022-12-19T03:41:12.078Z,43.83
2022-12-19T03:43:45.860Z,39.55
2022-12-19T03:46:25.760Z,42.90
2022-12-19T03:48:58.718Z,41.80
2022-12-19T03:51:39.550Z,42.20
2022-12-19T03:54:19.131Z,39.47
2022-12-19T03:56:59.281Z,43.13
2022-12-19T03:59:37.145Z,40.20
2022-12-19T04:02:11.761Z,42.50
2022-12-19T04:04:47.899Z,43.05
2022-12-19T04:07:24.324Z,41.42
2022-12-19T04:10:00.244Z,40.22
2022-12-19T04:12:38.509Z,45.13
2022-12-19T04:15:12.133Z,37.35
2022-12-19T04:17:49.417Z,40.58
2022-12-19T04:20:25.647Z,44.03
2022-12-19T04:23:04.195Z,45.53
2022-12-19T04:25:40.270Z,38.17
2022-12-19T04:28:18.551Z,43.42
2022-12-19T04:30:52.227Z,41.50
2022-12-19T04:33:25.079Z,40.97
2022-12-19T04:35:58.162Z,44.30
2022-12-19T04:38:33.154Z,38.75
2022-12-19T04:41:06.132Z,39.35
2022-12-19T04:43:39.361Z,39.38
2022-12-19T04:46:12.229Z,36.80
2022-12-19T04:48:45.159Z,40.13
2022-12-19T04:51:17.975Z,43.08
2022-12-19T04:53:52.262Z,43.15
2022-12-19T04:56:25.519Z,42.33
2022-12-19T04:58:59.085Z,41.55
2022-12-19T05:01:32.353Z,43.13
2022-12-19T05:04:06.456Z,41.05
2022-12-19T05:06:40.056Z,48.03
2022-12-19T05:09:14.632Z,45.88
2022-12-19T05:11:47.671Z,38.95
2022-12-19T05:14:21.325Z,41.63
2022-12-19T05:17:00.370Z,39.40
2022-12-19T05:19:34.391Z,44.03
2022-12-19T05:22:07.694Z,45.97
2022-12-19T05:24:42.059Z,41.53
2022-12-19T05:27:15.063Z,44.53
2022-12-19T05:29:49.556Z,44.03
2022-12-19T05:32:22.413Z,44.88
2022-12-19T05:34:55.437Z,44.60
2022-12-19T05:37:28.669Z,49.58
2022-12-19T05:40:03.021Z,39.55
2022-12-19T05:42:36.020Z,44.35
2022-12-19T05:45:09.847Z,45.28
2022-12-19T05:47:43.953Z,48.05
2022-12-19T05:50:17.714Z,44.85
2022-12-19T05:52:50.808Z,44.78
2022-12-19T05:55:25.387Z,42.28
2022-12-19T05:57:58.307Z,40.88
2022-12-19T06:00:31.957Z,43.53
2022-12-19T06:03:05.233Z,44.05
2022-12-19T06:05:40.103Z,43.28
2022-12-19T06:08:13.129Z,46.67
2022-12-19T06:10:47.678Z,49.35
2022-12-19T06:13:24.912Z,46.58
2022-12-19T06:16:00.095Z,47.85
2022-12-19T06:18:33.344Z,50.05
2022-12-19T06:21:08.607Z,47.10
2022-12-19T06:23:41.968Z,55.15
2022-12-19T06:26:20.151Z,49.47
2022-12-19T06:28:55.863Z,48.13
2022-12-19T06:31:29.318Z,51.03
2022-12-19T06:34:02.499Z,52.80
2022-12-19T06:36:36.056Z,56.17
2022-12-19T06:39:09.043Z,55.88
2022-12-19T06:42:01.096Z,50.25
2022-12-19T06:47:07.313Z,43.83
2022-12-19T06:49:40.393Z,52.13
2022-12-19T06:52:13.516Z,46.00
2022-12-19T06:54:46.919Z,50.60
2022-12-19T06:57:21.939Z,48.00
2022-12-19T06:59:55.022Z,46.42
2022-12-19T07:02:31.256Z,51.05
2022-12-19T07:05:07.311Z,46.38
2022-12-19T07:07:41.318Z,48.45
2022-12-19T07:10:14.266Z,46.95
2022-12-19T07:12:48.697Z,50.08
2022-12-19T07:15:22.055Z,45.28
2022-12-19T07:17:55.460Z,45.83
2022-12-19T07:20:30.642Z,45.60
2022-12-19T07:23:04.714Z,45.75
2022-12-19T07:25:39.465Z,46.47
2022-12-19T07:28:14.437Z,48.85
2022-12-19T07:30:47.305Z,45.40
2022-12-19T07:33:22.947Z,45.50
2022-12-19T07:35:55.855Z,47.08
2022-12-19T07:38:28.758Z,48.05
2022-12-19T07:41:02.331Z,44.33
2022-12-19T07:43:36.673Z,46.03
2022-12-19T07:46:09.796Z,47.17
2022-12-19T07:48:43.055Z,45.80
2022-12-19T07:51:16.053Z,42.85
2022-12-19T07:53:49.188Z,43.15
2022-12-19T07:56:22.247Z,43.08
2022-12-19T07:58:56.837Z,47.00
2022-12-19T08:01:30.085Z,44.80
2022-12-19T08:04:03.360Z,48.40
2022-12-19T08:06:40.854Z,41.85
2022-12-19T08:09:14.943Z,41.28
2022-12-19T08:11:47.963Z,45.63
2022-12-19T08:14:22.809Z,45.78
2022-12-19T08:17:19.896Z,48.20
2022-12-19T08:19:48.556Z,42.60
2022-12-19T08:22:21.337Z,42.65
2022-12-19T08:24:54.257Z,46.97
2022-12-19T08:27:27.691Z,48.72
2022-12-19T08:30:02.167Z,44.33
2022-12-19T08:32:35.058Z,46.90
2022-12-19T08:35:09.008Z,48.45
2022-12-19T08:37:42.270Z,45.33
2022-12-19T08:40:15.963Z,48.35
2022-12-19T08:42:48.762Z,47.70
2022-12-19T08:45:23.235Z,47.40
2022-12-19T08:47:56.841Z,50.45
2022-12-19T08:50:29.639Z,49.35
2022-12-19T08:53:02.512Z,43.95
2022-12-19T08:55:36.853Z,47.05
2022-12-19T08:58:09.756Z,52.97
2022-12-19T09:00:46.523Z,47.63
2022-12-19T09:03:34.073Z,47.78
2022-12-19T09:06:20.228Z,65.53
2022-12-19T09:08:53.900Z,69.60
2022-12-19T09:11:33.347Z,59.65
2022-12-19T09:14:08.944Z,51.90
2022-12-19T09:16:43.115Z,51.75
2022-12-19T09:19:16.647Z,47.40
2022-12-19T09:21:49.394Z,45.65
2022-12-19T09:24:22.163Z,49.03
2022-12-19T09:26:55.010Z,49.47
2022-12-19T09:29:32.205Z,47.00
2022-12-19T09:32:09.516Z,52.60
2022-12-19T09:34:42.367Z,47.05
2022-12-19T09:37:17.697Z,61.63
2022-12-19T09:39:51.074Z,48.92
2022-12-19T09:42:51.595Z,51.83
2022-12-19T09:45:38.606Z,49.40
2022-12-19T09:48:23.602Z,50.83
2022-12-19T09:51:10.220Z,51.53
2022-12-19T09:53:58.346Z,51.88
2022-12-19T09:56:46.007Z,49.20
2022-12-19T09:59:39.709Z,51.00
2022-12-19T10:02:28.241Z,51.88
2022-12-19T10:05:34.838Z,48.42
2022-12-19T10:08:09.683Z,51.42
2022-12-19T10:12:39.116Z,52.33
2022-12-19T10:13:57.346Z,51.90
2022-12-19T10:16:56.321Z,49.92
2022-12-19T10:19:46.903Z,48.28
2022-12-19T10:22:29.327Z,49.97
2022-12-19T10:25:18.841Z,52.83
2022-12-19T10:27:59.158Z,49.08
2022-12-19T10:30:36.935Z,54.08
2022-12-19T10:33:20.673Z,51.13
2022-12-19T10:35:56.384Z,47.30
2022-12-19T10:38:50.320Z,47.63
2022-12-19T10:41:27.010Z,49.30
2022-12-19T10:44:05.720Z,49.17
2022-12-19T10:46:41.191Z,51.97
2022-12-19T10:49:17.290Z,52.33
2022-12-19T10:52:00.849Z,49.05
2022-12-19T10:54:44.100Z,55.63
2022-12-19T10:57:25.802Z,50.92
2022-12-19T11:00:00.605Z,50.17
2022-12-19T11:02:44.776Z,49.92
2022-12-19T11:05:27.592Z,52.15
2022-12-19T11:08:03.319Z,51.65
2022-12-19T11:11:04.287Z,49.65
2022-12-19T11:20:30.689Z,45.95
2022-12-19T11:23:32.790Z,50.85
2022-12-19T11:29:17.028Z,48.05
2022-12-19T11:29:30.356Z,51.58
2022-12-19T11:29:55.166Z,51.70
2022-12-19T11:30:48.000Z,48.45
2022-12-19T11:34:18.698Z,52.63
2022-12-19T11:36:56.937Z,50.88
2022-12-19T11:39:36.454Z,52.95
2022-12-19T11:42:16.672Z,47.63
2022-12-19T11:44:57.177Z,55.60
2022-12-19T11:47:38.068Z,54.83
2022-12-19T11:50:16.479Z,48.80
2022-12-19T11:53:12.992Z,56.38
2022-12-19T11:55:54.114Z,52.22
2022-12-19T11:58:29.973Z,50.92
2022-12-19T12:01:15.538Z,55.42
2022-12-19T12:04:09.049Z,55.17
2022-12-19T12:06:49.141Z,56.38
2022-12-19T12:14:52.161Z,57.40
2022-12-19T12:19:27.933Z,54.33
2022-12-19T12:30:53.667Z,53.88
2022-12-19T12:31:17.721Z,56.45
2022-12-19T12:31:38.743Z,56.22
2022-12-19T12:31:54.115Z,54.25
2022-12-19T12:31:58.103Z,51.35
2022-12-19T12:31:58.825Z,50.50
2022-12-19T12:35:32.769Z,54.47
2022-12-19T12:38:12.271Z,55.00
2022-12-19T12:40:23.624Z,54.40
2022-12-19T12:43:08.196Z,57.13
2022-12-19T12:45:43.211Z,56.25
2022-12-19T12:48:24.638Z,56.58
2022-12-19T12:51:01.349Z,55.08
2022-12-19T12:53:38.230Z,54.92
2022-12-19T12:56:13.987Z,56.10
2022-12-19T12:59:06.344Z,55.78
2022-12-19T13:01:42.219Z,50.78
2022-12-19T13:04:25.294Z,57.28
2022-12-19T13:07:16.425Z,52.63
2022-12-19T13:09:55.643Z,55.93
2022-12-19T13:12:46.899Z,53.20
2022-12-19T13:15:37.049Z,50.25
2022-12-19T13:18:38.765Z,50.92
2022-12-19T13:21:11.585Z,55.65
2022-12-19T13:23:48.572Z,56.65
2022-12-19T13:26:38.968Z,57.53
2022-12-19T13:29:29.732Z,54.83
2022-12-19T13:32:14.429Z,57.83
2022-12-19T13:35:02.825Z,49.47
2022-12-19T13:39:51.095Z,56.95
2022-12-19T13:40:57.344Z,50.20
2022-12-19T13:43:47.969Z,55.58
2022-12-19T13:46:32.296Z,57.00
2022-12-19T13:49:08.292Z,55.58
2022-12-19T13:51:48.107Z,53.72
2022-12-19T13:54:23.995Z,55.03
2022-12-19T13:56:58.254Z,56.70
2022-12-19T13:59:38.937Z,59.88
2022-12-19T14:02:19.075Z,56.65
2022-12-19T14:04:52.478Z,53.80
2022-12-19T14:07:37.427Z,49.83
2022-12-19T14:11:44.168Z,49.97
2022-12-19T14:13:44.688Z,51.80
2022-12-19T14:16:34.719Z,51.67
2022-12-19T14:19:20.887Z,56.70
2022-12-19T14:22:05.492Z,51.88
2022-12-19T14:24:55.289Z,49.53
2022-12-19T14:28:20.710Z,49.22
2022-12-19T14:30:52.648Z,53.53
2022-12-19T14:33:45.140Z,48.90
2022-12-19T14:36:29.238Z,52.50
2022-12-19T14:39:23.899Z,54.38
2022-12-19T14:42:20.401Z,54.05
2022-12-19T14:51:09.062Z,49.63
2022-12-19T14:53:10.880Z,49.17
2022-12-19T14:54:29.062Z,51.15
2022-12-19T14:56:08.664Z,48.17
2022-12-19T14:58:50.472Z,59.20
2022-12-19T15:01:10.369Z,46.85
2022-12-19T15:03:21.321Z,50.72
2022-12-19T15:06:19.750Z,51.20
2022-12-19T15:10:59.006Z,52.50
2022-12-19T15:14:46.784Z,46.88
2022-12-19T15:15:22.883Z,48.75
2022-12-19T15:17:56.773Z,47.95
2022-12-19T15:20:29.671Z,48.88
2022-12-19T15:23:04.149Z,54.00
2022-12-19T15:26:02.874Z,50.05
2022-12-19T15:28:37.801Z,50.63
2022-12-19T15:31:26.969Z,49.10
2022-12-19T15:34:32.858Z,46.13
2022-12-19T15:36:54.014Z,40.72
2022-12-19T15:39:30.524Z,46.10
2022-12-19T15:42:03.950Z,49.75
2022-12-19T15:44:39.115Z,46.58
2022-12-19T15:47:18.365Z,48.60
2022-12-19T15:49:51.281Z,44.75
2022-12-19T15:52:25.718Z,49.35
2022-12-19T15:54:59.927Z,41.55
2022-12-19T15:57:36.430Z,47.97
2022-12-19T16:00:18.501Z,48.05
2022-12-19T16:05:46.031Z,43.90
2022-12-19T16:08:22.844Z,40.97
2022-12-19T16:11:01.718Z,40.22
2022-12-19T16:13:36.161Z,40.17
2022-12-19T16:16:15.829Z,43.38
2022-12-19T16:18:49.497Z,39.75
2022-12-19T16:21:31.574Z,43.00
2022-12-19T16:24:07.251Z,47.58
2022-12-19T16:26:41.849Z,46.85
2022-12-19T16:29:20.159Z,46.20
2022-12-19T16:31:53.101Z,41.80
2022-12-19T16:34:28.937Z,47.72
2022-12-19T16:37:01.999Z,42.30
2022-12-19T16:39:34.970Z,46.08
2022-12-19T16:42:15.671Z,44.30
2022-12-19T16:44:49.319Z,49.75
2022-12-19T16:47:22.871Z,41.20
2022-12-19T16:49:55.813Z,39.38
2022-12-19T16:52:28.890Z,40.28
2022-12-19T16:55:02.036Z,41.95
2022-12-19T16:57:36.480Z,43.65
2022-12-19T17:00:16.134Z,45.25
2022-12-19T17:02:51.590Z,42.50
2022-12-19T17:05:26.585Z,43.83
2022-12-19T17:08:00.119Z,38.72
2022-12-19T17:10:35.120Z,43.25
2022-12-19T17:13:14.093Z,46.47
2022-12-19T17:15:52.624Z,44.63
2022-12-19T17:18:31.874Z,48.95
2022-12-19T17:21:04.838Z,50.72
2022-12-19T17:23:37.675Z,44.60
2022-12-19T17:26:17.298Z,46.67
2022-12-19T17:28:52.146Z,45.33
2022-12-19T17:31:29.085Z,40.10
2022-12-19T17:34:02.215Z,42.33
2022-12-19T17:36:37.863Z,46.40
2022-12-19T17:39:20.236Z,53.25
2022-12-19T17:41:54.261Z,54.13
2022-12-19T17:44:28.771Z,52.53
2022-12-19T17:47:01.747Z,52.70
2022-12-19T17:49:36.000Z,50.15
2022-12-19T17:52:14.633Z,50.10
2022-12-19T17:54:47.951Z,48.95
2022-12-19T17:57:20.807Z,46.33
2022-12-19T17:59:55.012Z,48.03
2022-12-19T18:02:28.693Z,47.88
2022-12-19T18:05:01.799Z,42.80
2022-12-19T18:07:34.678Z,48.45
2022-12-19T18:10:16.044Z,38.85
2022-12-19T18:12:49.017Z,44.00
2022-12-19T18:15:24.691Z,40.80
2022-12-19T18:17:58.825Z,46.40
2022-12-19T18:20:33.754Z,49.40
2022-12-19T18:23:15.344Z,44.28
2022-12-19T18:25:49.095Z,50.30
2022-12-19T18:28:22.006Z,40.42
2022-12-19T18:31:01.289Z,41.50
2022-12-19T18:33:39.273Z,42.53
2022-12-19T18:36:19.768Z,42.25
2022-12-19T18:38:55.093Z,42.85
2022-12-19T18:41:28.048Z,45.20
2022-12-19T18:44:00.907Z,45.55
2022-12-19T18:46:35.910Z,46.47
2022-12-19T18:49:13.697Z,43.88
2022-12-19T18:51:46.664Z,47.13
2022-12-19T18:54:21.634Z,49.50
2022-12-19T18:56:54.472Z,47.80
2022-12-19T18:59:27.728Z,50.33
2022-12-19T19:02:02.222Z,48.08
2022-12-19T19:04:35.312Z,47.53
2022-12-19T19:07:11.190Z,48.53
2022-12-19T19:09:44.057Z,44.58
2022-12-19T19:12:17.865Z,51.78
2022-12-19T19:14:50.717Z,51.22
2022-12-19T19:17:30.522Z,54.67
2022-12-19T19:20:04.135Z,53.65
2022-12-19T19:22:36.937Z,48.35
2022-12-19T19:25:10.613Z,46.22
2022-12-19T19:27:43.534Z,50.67
2022-12-19T19:30:16.810Z,47.17
2022-12-19T19:32:55.235Z,51.90
2022-12-19T19:35:28.702Z,50.08
2022-12-19T19:38:06.651Z,65.88
2022-12-19T19:40:39.717Z,57.58
2022-12-19T19:43:12.819Z,60.65
2022-12-19T19:45:46.870Z,58.90
2022-12-19T19:48:21.370Z,61.13
2022-12-19T19:50:54.389Z,59.13
2022-12-19T19:53:27.389Z,50.58
2022-12-19T19:56:01.962Z,55.40
2022-12-19T19:58:34.930Z,51.75
2022-12-19T20:01:09.332Z,49.55
2022-12-19T20:03:44.858Z,46.55
2022-12-19T20:06:19.285Z,45.97
2022-12-19T20:08:52.238Z,44.97
2022-12-19T20:11:25.094Z,46.25
2022-12-19T20:13:58.055Z,42.67
2022-12-19T20:16:32.248Z,46.45
2022-12-19T20:19:08.778Z,41.22
2022-12-19T20:21:41.777Z,40.70
2022-12-19T20:24:14.682Z,49.03
2022-12-19T20:26:47.798Z,47.55
2022-12-19T20:29:20.755Z,49.78
2022-12-19T20:31:53.891Z,42.95
2022-12-19T20:34:28.147Z,49.08
2022-12-19T20:37:01.085Z,50.63
2022-12-19T20:39:34.464Z,51.90
2022-12-19T20:42:09.496Z,50.45
2022-12-19T20:44:42.376Z,56.45
2022-12-19T20:47:15.722Z,53.17
2022-12-19T20:49:50.014Z,57.00
2022-12-19T20:52:22.889Z,56.78
2022-12-19T20:54:55.751Z,49.10
2022-12-19T20:57:30.437Z,48.78
2022-12-19T21:00:03.496Z,48.92
2022-12-19T21:02:59.946Z,49.88
2022-12-19T21:05:30.533Z,54.47
2022-12-19T21:08:03.489Z,51.05
2022-12-19T21:10:37.313Z,55.90
2022-12-19T21:13:10.332Z,57.53
2022-12-19T21:15:43.335Z,52.10
2022-12-19T21:18:16.468Z,54.83
2022-12-19T21:20:51.105Z,54.45
2022-12-19T21:23:25.366Z,52.85
2022-12-19T21:25:59.839Z,52.80
2022-12-19T21:28:33.416Z,50.92
2022-12-19T21:31:08.968Z,47.78
2022-12-19T21:33:41.861Z,49.10
2022-12-19T21:36:20.231Z,51.30
2022-12-19T21:38:55.568Z,53.42
2022-12-19T21:41:29.522Z,51.40
2022-12-19T21:44:02.455Z,51.80
2022-12-19T21:46:35.357Z,43.85
2022-12-19T21:49:08.741Z,51.33
2022-12-19T21:51:43.008Z,47.92
2022-12-19T21:54:16.102Z,48.60
2022-12-19T21:56:49.211Z,46.20
2022-12-19T21:59:22.156Z,44.92
2022-12-19T22:01:55.151Z,50.13
2022-12-19T22:04:28.625Z,51.08
2022-12-19T22:07:05.660Z,51.38
2022-12-19T22:09:38.521Z,49.75
2022-12-19T22:12:14.017Z,48.03
2022-12-19T22:14:46.937Z,50.42
2022-12-19T22:17:19.899Z,49.35
2022-12-19T22:19:52.773Z,47.45
2022-12-19T22:22:26.975Z,48.53
2022-12-19T22:25:00.145Z,46.17
2022-12-19T22:27:33.108Z,54.83
2022-12-19T22:30:11.129Z,52.10
2022-12-19T22:32:44.312Z,52.42
2022-12-19T22:35:17.826Z,53.10
2022-12-19T22:37:52.120Z,48.95
2022-12-19T22:40:24.989Z,50.20
2022-12-19T22:42:57.893Z,54.90
2022-12-19T22:45:31.744Z,50.53
2022-12-19T22:48:04.776Z,49.88
2022-12-19T22:50:37.743Z,50.60
2022-12-19T22:53:13.068Z,55.50
2022-12-19T22:55:46.080Z,50.72
2022-12-19T22:58:18.932Z,52.05
2022-12-19T23:00:51.868Z,48.08
2022-12-19T23:03:24.826Z,45.42
2022-12-19T23:05:57.885Z,44.88
2022-12-19T23:08:32.436Z,46.65
2022-12-19T23:11:05.853Z,44.75
2022-12-19T23:13:38.745Z,43.90
2022-12-19T23:16:13.306Z,46.85
2022-12-19T23:18:46.314Z,45.63
2022-12-19T23:21:21.454Z,46.25
2022-12-19T23:23:57.142Z,46.90
2022-12-19T23:26:32.674Z,41.63
2022-12-19T23:29:07.950Z,39.25
2022-12-19T23:31:42.876Z,42.53
2022-12-19T23:34:16.453Z,35.72
2022-12-19T23:39:43.414Z,43.10
2022-12-19T23:42:16.192Z,38.17
2022-12-19T23:44:51.411Z,38.90
2022-12-19T23:47:24.234Z,34.58
2022-12-19T23:49:57.097Z,36.70
2022-12-19T23:52:30.098Z,35.35
2022-12-19T23:55:05.339Z,39.08
2022-12-19T23:57:38.291Z,36.20
